createdAt,value
2017-10-12T00:00:45.747Z,9.30
2017-10-12T00:03:13.242Z,9.30
2017-10-12T00:05:40.756Z,9.30
2017-10-12T00:08:08.247Z,9.30
2017-10-12T00:10:35.739Z,9.40
2017-10-12T00:13:03.245Z,9.30
2017-10-12T00:15:30.734Z,9.30
2017-10-12T00:17:58.215Z,9.30
2017-10-12T00:20:25.726Z,9.30
2017-10-12T00:22:53.210Z,9.20
2017-10-12T00:25:20.700Z,9.20
2017-10-12T00:27:48.982Z,9.20
2017-10-12T00:30:16.470Z,9.20
2017-10-12T00:32:44.718Z,9.10
2017-10-12T00:35:12.228Z,9.10
2017-10-12T00:37:39.728Z,9.10
2017-10-12T00:40:07.219Z,9.20
2017-10-12T00:42:34.734Z,9.20
2017-10-12T00:45:02.231Z,9.10
2017-10-12T00:47:30.489Z,9.10
2017-10-12T00:49:58.785Z,9.10
2017-10-12T00:52:27.038Z,9.10
2017-10-12T00:54:55.290Z,9.10
2017-10-12T00:57:22.842Z,9.10
2017-10-12T00:59:50.334Z,9.10
2017-10-12T01:02:17.819Z,9.10
2017-10-12T01:04:45.598Z,9.00
2017-10-12T01:07:13.095Z,9.10
2017-10-12T01:09:40.582Z,9.10
2017-10-12T01:12:08.863Z,9.10
2017-10-12T01:14:36.351Z,9.10
2017-10-12T01:17:03.835Z,9.10
2017-10-12T01:19:31.348Z,9.20
2017-10-12T01:21:59.614Z,9.20
2017-10-12T01:24:27.106Z,9.20
2017-10-12T01:26:54.615Z,9.30
2017-10-12T01:29:22.107Z,9.40
2017-10-12T01:31:49.644Z,9.40
2017-10-12T01:34:17.906Z,9.40
2017-10-12T01:36:45.422Z,9.40
2017-10-12T01:39:12.934Z,9.50
2017-10-12T01:41:40.435Z,9.50
2017-10-12T01:44:07.933Z,9.50
2017-10-12T01:46:35.439Z,9.50
2017-10-12T01:49:03.691Z,9.50
2017-10-12T01:51:31.955Z,9.50
2017-10-12T01:54:00.497Z,9.50
2017-10-12T01:56:28.000Z,9.50
2017-10-12T01:58:55.498Z,9.60
2017-10-12T02:01:23.018Z,9.60
2017-10-12T02:03:50.517Z,9.70
2017-10-12T02:06:18.771Z,9.80
2017-10-12T02:08:46.288Z,9.70
2017-10-12T02:11:13.789Z,9.70
2017-10-12T02:13:41.283Z,9.70
2017-10-12T02:16:08.783Z,9.80
2017-10-12T02:18:36.274Z,9.80
2017-10-12T02:21:04.554Z,9.80
2017-10-12T02:23:32.819Z,9.90
2017-10-12T02:26:00.316Z,9.90
2017-10-12T02:28:27.829Z,9.90
2017-10-12T02:30:55.335Z,9.90
2017-10-12T02:33:22.827Z,9.90
2017-10-12T02:35:50.350Z,9.90
2017-10-12T02:38:17.846Z,9.90
2017-10-12T02:40:45.329Z,10.00
2017-10-12T02:43:12.841Z,10.00
2017-10-12T02:45:40.331Z,10.00
2017-10-12T02:48:07.831Z,10.10
2017-10-12T02:50:36.125Z,10.10
2017-10-12T02:53:03.625Z,10.10
2017-10-12T02:55:31.126Z,10.10
2017-10-12T02:57:58.637Z,10.10
2017-10-12T03:00:26.130Z,10.10
2017-10-12T03:02:54.386Z,10.10
2017-10-12T03:05:22.665Z,10.10
2017-10-12T03:07:50.918Z,10.20
2017-10-12T03:10:18.417Z,10.20
2017-10-12T03:12:45.960Z,10.20
2017-10-12T03:15:13.462Z,10.20
2017-10-12T03:17:40.998Z,10.20
2017-10-12T03:20:09.255Z,10.10
2017-10-12T03:22:36.746Z,10.20
2017-10-12T03:25:05.023Z,10.20
2017-10-12T03:27:33.398Z,10.20
2017-10-12T03:30:00.909Z,10.30
2017-10-12T03:32:28.430Z,10.30
2017-10-12T03:34:55.928Z,10.40
2017-10-12T03:37:23.414Z,10.40
2017-10-12T03:39:50.939Z,10.40
2017-10-12T03:42:18.443Z,10.40
2017-10-12T03:44:47.442Z,10.50
2017-10-12T03:47:14.965Z,10.50
2017-10-12T03:49:42.458Z,10.50
2017-10-12T03:52:10.723Z,10.60
2017-10-12T03:54:38.247Z,10.60
2017-10-12T03:57:05.739Z,10.60
2017-10-12T03:59:33.239Z,10.50
2017-10-12T04:02:00.752Z,10.50
2017-10-12T04:04:28.242Z,10.50
2017-10-12T04:06:56.510Z,10.50
2017-10-12T04:09:24.798Z,10.50
2017-10-12T04:11:53.058Z,10.50
2017-10-12T04:14:20.542Z,10.50
2017-10-12T04:16:48.351Z,10.50
2017-10-12T04:19:15.838Z,10.50
2017-10-12T04:21:43.340Z,10.50
2017-10-12T04:24:10.850Z,10.50
2017-10-12T04:26:38.351Z,10.50
2017-10-12T04:29:05.855Z,10.50
2017-10-12T04:31:33.370Z,10.60
2017-10-12T04:34:00.869Z,10.60
2017-10-12T04:36:28.363Z,10.60
2017-10-12T04:38:55.890Z,10.70
2017-10-12T04:41:23.378Z,10.70
2017-10-12T04:43:51.635Z,10.70
2017-10-12T04:46:19.152Z,10.70
2017-10-12T04:48:46.653Z,10.70
2017-10-12T04:51:14.173Z,10.70
2017-10-12T04:53:41.668Z,10.70
2017-10-12T04:56:09.188Z,10.70
2017-10-12T04:58:37.465Z,10.60
2017-10-12T05:01:04.962Z,10.60
2017-10-12T05:03:32.455Z,10.60
2017-10-12T05:05:59.962Z,10.60
2017-10-12T05:08:27.455Z,10.60
2017-10-12T05:10:54.943Z,10.60
2017-10-12T05:13:22.454Z,10.50
2017-10-12T05:15:49.949Z,10.60
2017-10-12T05:18:17.517Z,10.50
2017-10-12T05:20:45.014Z,10.50
2017-10-12T05:23:12.519Z,10.50
2017-10-12T05:25:40.030Z,10.60
2017-10-12T05:28:07.535Z,10.50
2017-10-12T05:30:35.794Z,10.50
2017-10-12T05:33:03.295Z,10.50
2017-10-12T05:35:30.786Z,10.50
2017-10-12T05:37:58.311Z,10.50
2017-10-12T05:40:25.819Z,10.50
2017-10-12T05:42:53.324Z,10.50
2017-10-12T05:45:20.839Z,10.50
2017-10-12T05:47:48.352Z,10.50
2017-10-12T05:50:15.853Z,10.50
2017-10-12T05:52:43.371Z,10.60
2017-10-12T05:55:10.868Z,10.60
2017-10-12T05:57:38.370Z,10.60
2017-10-12T06:00:05.898Z,10.60
2017-10-12T06:02:33.384Z,10.50
2017-10-12T06:05:01.650Z,10.60
2017-10-12T06:07:29.194Z,10.60
2017-10-12T06:09:56.694Z,10.70
2017-10-12T06:12:24.199Z,10.70
2017-10-12T06:14:51.719Z,10.70
2017-10-12T06:17:19.215Z,10.60
2017-10-12T06:19:46.714Z,10.60
2017-10-12T06:22:14.998Z,10.70
2017-10-12T06:24:43.253Z,10.70
2017-10-12T06:27:10.743Z,10.70
2017-10-12T06:29:38.259Z,10.70
2017-10-12T06:32:05.781Z,10.70
2017-10-12T06:34:33.301Z,10.80
2017-10-12T06:37:00.796Z,10.90
2017-10-12T06:39:28.293Z,11.00
2017-10-12T06:41:55.805Z,11.10
2017-10-12T06:44:23.306Z,11.10
2017-10-12T06:46:50.807Z,11.10
2017-10-12T06:49:18.331Z,11.20
2017-10-12T06:51:45.831Z,11.20
2017-10-12T06:54:14.109Z,11.30
2017-10-12T06:56:42.362Z,11.30
2017-10-12T06:59:09.847Z,11.30
2017-10-12T07:01:37.368Z,11.40
2017-10-12T07:04:04.858Z,11.40
2017-10-12T07:06:32.362Z,11.50
2017-10-12T07:08:59.873Z,11.50
2017-10-12T07:11:28.143Z,11.60
2017-10-12T07:13:56.430Z,11.70
2017-10-12T07:16:24.695Z,11.60
2017-10-12T07:18:52.959Z,11.60
2017-10-12T07:21:20.481Z,11.70
2017-10-12T07:23:47.970Z,11.70
2017-10-12T07:26:15.467Z,11.70
2017-10-12T07:28:42.998Z,11.70
2017-10-12T07:31:10.490Z,11.70
2017-10-12T07:33:37.988Z,11.80
2017-10-12T07:36:05.518Z,11.70
2017-10-12T07:38:33.017Z,11.70
2017-10-12T07:41:00.521Z,11.80
2017-10-12T07:43:28.038Z,11.90
2017-10-12T07:45:55.534Z,12.10
2017-10-12T07:48:23.058Z,12.20
2017-10-12T07:50:50.577Z,12.40
2017-10-12T07:53:18.070Z,12.60
2017-10-12T07:55:45.573Z,12.80
2017-10-12T07:58:13.092Z,13.00
2017-10-12T08:00:40.598Z,13.10
2017-10-12T08:03:08.085Z,13.10
2017-10-12T08:05:35.582Z,13.20
2017-10-12T08:08:03.094Z,13.30
2017-10-12T08:10:30.588Z,13.40
2017-10-12T08:12:58.078Z,13.50
2017-10-12T08:15:26.346Z,13.70
2017-10-12T08:17:54.625Z,14.00
2017-10-12T08:20:22.889Z,14.00
2017-10-12T08:22:50.383Z,14.00
2017-10-12T08:25:17.898Z,14.10
2017-10-12T08:27:45.410Z,14.10
2017-10-12T08:30:12.922Z,14.10
2017-10-12T08:32:41.227Z,14.20
2017-10-12T08:35:09.489Z,14.30
2017-10-12T08:37:37.774Z,14.30
2017-10-12T08:40:06.035Z,14.30
2017-10-12T08:42:33.532Z,14.30
2017-10-12T08:45:01.054Z,14.40
2017-10-12T08:47:28.546Z,14.40
2017-10-12T08:49:56.040Z,14.50
2017-10-12T08:52:23.552Z,14.50
2017-10-12T08:54:51.814Z,14.70
2017-10-12T08:57:20.075Z,14.70
2017-10-12T08:59:47.592Z,14.70
2017-10-12T09:02:15.097Z,14.70
2017-10-12T09:04:43.359Z,14.80
2017-10-12T09:07:10.870Z,14.80
2017-10-12T09:09:38.370Z,14.90
2017-10-12T09:12:05.884Z,14.90
2017-10-12T09:14:34.146Z,15.00
2017-10-12T09:17:02.414Z,15.10
2017-10-12T09:19:29.925Z,15.10
2017-10-12T09:21:57.418Z,15.20
2017-10-12T09:24:24.932Z,15.30
2017-10-12T09:26:52.437Z,15.50
2017-10-12T09:29:19.930Z,15.60
2017-10-12T09:31:48.205Z,15.60
2017-10-12T09:34:16.472Z,15.70
2017-10-12T09:36:44.742Z,15.80
2017-10-12T09:39:13.029Z,15.80
2017-10-12T09:41:41.486Z,15.90
2017-10-12T09:44:08.971Z,15.90
2017-10-12T09:46:37.250Z,15.90
2017-10-12T09:49:05.501Z,15.80
2017-10-12T09:51:33.021Z,15.80
2017-10-12T09:54:00.510Z,15.80
2017-10-12T09:56:28.002Z,15.80
2017-10-12T09:58:55.547Z,15.80
2017-10-12T10:01:23.048Z,15.80
2017-10-12T10:03:50.542Z,15.80
2017-10-12T10:06:18.058Z,15.70
2017-10-12T10:08:45.545Z,15.70
2017-10-12T10:11:13.043Z,15.70
2017-10-12T10:13:40.554Z,15.60
2017-10-12T10:16:08.051Z,15.60
2017-10-12T10:18:35.579Z,15.60
2017-10-12T10:21:03.085Z,15.70
2017-10-12T10:23:31.373Z,15.70
2017-10-12T10:25:59.650Z,15.70
2017-10-12T10:28:27.934Z,15.80
2017-10-12T10:30:56.198Z,15.90
2017-10-12T10:33:24.459Z,15.90
2017-10-12T10:35:51.988Z,15.90
2017-10-12T10:38:19.490Z,15.90
2017-10-12T10:40:46.994Z,16.00
2017-10-12T10:43:14.514Z,16.00
2017-10-12T10:45:42.832Z,16.00
2017-10-12T10:48:10.327Z,16.00
2017-10-12T10:50:37.854Z,16.00
2017-10-12T10:53:05.378Z,16.00
2017-10-12T10:55:33.642Z,16.00
2017-10-12T10:58:01.935Z,15.90
2017-10-12T11:00:30.201Z,16.00
2017-10-12T11:02:58.471Z,16.00
2017-10-12T11:05:26.762Z,16.10
2017-10-12T11:07:55.019Z,16.10
2017-10-12T11:10:22.520Z,16.10
2017-10-12T11:12:50.051Z,16.20
2017-10-12T11:15:17.545Z,16.20
2017-10-12T11:17:45.063Z,16.20
2017-10-12T11:20:13.342Z,16.30
2017-10-12T11:22:41.618Z,16.20
2017-10-12T11:25:09.887Z,16.30
2017-10-12T11:27:37.401Z,16.20
2017-10-12T11:30:04.916Z,16.10
2017-10-12T11:32:32.418Z,16.10
2017-10-12T11:34:59.939Z,16.00
2017-10-12T11:37:28.195Z,15.90
2017-10-12T11:39:55.690Z,15.80
2017-10-12T11:42:23.967Z,15.90
2017-10-12T11:44:51.449Z,15.90
2017-10-12T11:47:18.965Z,16.10
2017-10-12T11:49:46.482Z,16.20
2017-10-12T11:52:13.987Z,16.40
2017-10-12T11:54:42.253Z,16.40
2017-10-12T11:57:10.549Z,16.30
2017-10-12T11:59:38.807Z,16.20
2017-10-12T12:02:07.069Z,16.20
2017-10-12T12:04:34.579Z,16.20
2017-10-12T12:07:02.110Z,16.20
2017-10-12T12:09:29.603Z,16.30
2017-10-12T12:11:57.118Z,16.40
2017-10-12T12:14:24.606Z,16.50
2017-10-12T12:16:52.102Z,16.80
2017-10-12T12:19:19.610Z,16.80
2017-10-12T12:21:47.108Z,16.90
2017-10-12T12:24:14.603Z,17.00
2017-10-12T12:26:42.120Z,16.90
2017-10-12T12:29:09.635Z,17.10
2017-10-12T12:31:37.132Z,17.20
2017-10-12T12:34:04.628Z,17.30
2017-10-12T12:36:32.147Z,17.10
2017-10-12T12:38:59.643Z,16.90
2017-10-12T12:41:27.129Z,16.90
2017-10-12T12:43:54.638Z,16.80
2017-10-12T12:46:22.138Z,16.90
2017-10-12T12:48:49.631Z,17.00
2017-10-12T12:51:17.142Z,16.80
2017-10-12T12:53:44.638Z,16.70
2017-10-12T12:56:12.138Z,16.80
2017-10-12T12:58:39.646Z,16.80
2017-10-12T13:01:07.919Z,17.00
2017-10-12T13:03:35.406Z,17.00
2017-10-12T13:06:02.910Z,17.00
2017-10-12T13:08:30.398Z,17.00
2017-10-12T13:10:57.918Z,16.90
2017-10-12T13:13:25.406Z,16.80
2017-10-12T13:15:52.938Z,16.80
2017-10-12T13:18:20.454Z,17.00
2017-10-12T13:20:47.948Z,17.20
2017-10-12T13:23:15.444Z,17.10
2017-10-12T13:25:42.950Z,17.20
2017-10-12T13:28:10.442Z,17.40
2017-10-12T13:30:37.925Z,17.50
2017-10-12T13:33:06.206Z,17.40
2017-10-12T13:35:33.697Z,17.40
2017-10-12T13:38:01.190Z,17.30
2017-10-12T13:40:28.712Z,17.10
2017-10-12T13:42:56.197Z,17.00
2017-10-12T13:45:23.687Z,17.10
2017-10-12T13:47:51.202Z,17.30
2017-10-12T13:50:18.706Z,17.30
2017-10-12T13:52:46.211Z,17.20
2017-10-12T13:55:13.715Z,17.30
2017-10-12T13:57:41.260Z,17.20
2017-10-12T14:00:08.775Z,17.20
2017-10-12T14:02:37.024Z,17.20
2017-10-12T14:05:04.520Z,17.20
2017-10-12T14:07:32.054Z,17.20
2017-10-12T14:09:59.582Z,17.20
2017-10-12T14:12:27.082Z,17.30
2017-10-12T14:14:55.358Z,17.30
2017-10-12T14:17:23.639Z,17.20
2017-10-12T14:19:51.898Z,17.20
2017-10-12T14:22:20.169Z,17.30
2017-10-12T14:24:48.466Z,17.20
2017-10-12T14:27:16.757Z,17.20
2017-10-12T14:29:44.263Z,17.20
2017-10-12T14:32:11.753Z,17.20
2017-10-12T14:34:39.273Z,17.10
2017-10-12T14:37:06.771Z,17.20
2017-10-12T14:39:35.026Z,17.30
2017-10-12T14:42:02.552Z,17.20
2017-10-12T14:44:30.059Z,17.20
2017-10-12T14:46:58.323Z,17.20
2017-10-12T14:49:25.840Z,17.20
2017-10-12T14:51:53.342Z,17.20
2017-10-12T14:54:21.001Z,17.10
2017-10-12T14:56:48.506Z,17.10
2017-10-12T14:59:15.998Z,17.00
2017-10-12T15:01:43.532Z,17.00
2017-10-12T15:04:11.026Z,17.10
2017-10-12T15:06:38.521Z,17.10
2017-10-12T15:09:06.795Z,17.00
2017-10-12T15:11:35.592Z,17.00
2017-10-12T15:14:03.082Z,17.00
2017-10-12T15:16:30.584Z,16.90
2017-10-12T15:18:58.113Z,16.80
2017-10-12T15:21:25.605Z,16.70
2017-10-12T15:23:53.107Z,16.60
2017-10-12T15:26:20.631Z,16.60
2017-10-12T15:28:48.118Z,16.60
2017-10-12T15:31:16.378Z,16.40
2017-10-12T15:33:44.654Z,16.40
2017-10-12T15:36:12.925Z,16.40
2017-10-12T15:38:41.195Z,16.30
2017-10-12T15:41:08.715Z,16.30
2017-10-12T15:43:36.210Z,16.30
2017-10-12T15:46:03.710Z,16.30
2017-10-12T15:48:31.223Z,16.30
2017-10-12T15:50:58.722Z,16.20
2017-10-12T15:53:26.282Z,16.10
2017-10-12T15:55:53.774Z,16.10
2017-10-12T15:58:21.261Z,16.10
2017-10-12T16:00:48.775Z,16.00
2017-10-12T16:03:16.272Z,16.00
2017-10-12T16:05:44.422Z,16.00
2017-10-12T16:08:11.909Z,15.90
2017-10-12T16:10:39.407Z,15.90
2017-10-12T16:13:07.682Z,15.80
2017-10-12T16:15:35.942Z,15.80
2017-10-12T16:18:04.203Z,15.80
2017-10-12T16:20:31.707Z,15.80
2017-10-12T16:22:59.196Z,15.70
2017-10-12T16:25:26.694Z,15.70
2017-10-12T16:27:54.207Z,15.70
2017-10-12T16:30:21.698Z,15.60
2017-10-12T16:35:16.776Z,15.70
2017-10-12T16:37:44.282Z,15.70
2017-10-12T16:40:11.810Z,15.60
2017-10-12T16:42:39.322Z,15.50
2017-10-12T16:45:07.586Z,15.50
2017-10-12T16:47:35.098Z,15.40
2017-10-12T16:50:02.601Z,15.40
2017-10-12T16:52:30.885Z,15.30
2017-10-12T16:54:59.155Z,15.20
2017-10-12T16:57:27.426Z,15.20
2017-10-12T16:59:54.938Z,15.20
2017-10-12T17:02:22.459Z,15.20
2017-10-12T17:04:49.956Z,15.10
2017-10-12T17:07:17.473Z,15.10
2017-10-12T17:09:44.962Z,15.00
2017-10-12T17:12:12.462Z,15.00
2017-10-12T17:14:39.981Z,15.00
2017-10-12T17:17:07.481Z,15.00
2017-10-12T17:19:34.981Z,14.90
2017-10-12T17:22:03.267Z,14.90
2017-10-12T17:24:31.526Z,14.90
2017-10-12T17:26:59.028Z,14.90
2017-10-12T17:29:26.555Z,14.90
2017-10-12T17:31:54.824Z,14.80
2017-10-12T17:34:22.312Z,14.80
2017-10-12T17:36:49.875Z,14.80
2017-10-12T17:39:17.376Z,14.80
2017-10-12T17:41:44.883Z,14.80
2017-10-12T17:44:13.138Z,14.70
2017-10-12T17:46:40.645Z,14.70
2017-10-12T17:49:08.206Z,14.70
2017-10-12T17:51:35.703Z,14.70
2017-10-12T17:56:30.780Z,14.70
2017-10-12T17:58:58.275Z,14.60
2017-10-12T18:01:25.763Z,14.60
2017-10-12T18:03:54.071Z,14.60
2017-10-12T18:06:21.568Z,14.50
2017-10-12T18:08:49.082Z,14.50
2017-10-12T18:11:16.611Z,14.50
2017-10-12T18:13:44.455Z,14.40
2017-10-12T18:16:11.957Z,14.40
2017-10-12T18:18:39.482Z,14.40
2017-10-12T18:21:07.060Z,14.40
2017-10-12T18:23:35.327Z,14.30
2017-10-12T18:26:02.940Z,14.40
2017-10-12T18:28:30.463Z,14.40
2017-10-12T18:30:58.748Z,14.30
2017-10-12T18:33:27.356Z,14.30
2017-10-12T18:35:54.916Z,14.30
2017-10-12T18:38:22.893Z,14.30
2017-10-12T18:40:50.513Z,14.30
2017-10-12T18:43:18.422Z,14.30
2017-10-12T18:45:46.290Z,14.30
2017-10-12T18:48:14.156Z,14.30
2017-10-12T18:50:41.817Z,14.20
2017-10-12T18:53:09.609Z,14.20
2017-10-12T18:55:37.555Z,14.20
2017-10-12T18:58:05.426Z,14.20
2017-10-12T19:00:32.972Z,14.10
2017-10-12T19:03:00.797Z,14.10
2017-10-12T19:05:28.415Z,14.10
2017-10-12T19:07:56.071Z,14.10
2017-10-12T19:10:24.049Z,14.10
2017-10-12T19:12:51.688Z,14.10
2017-10-12T19:17:47.058Z,14.10
2017-10-12T19:20:14.749Z,14.00
2017-10-12T19:22:42.398Z,13.90
2017-10-12T19:25:10.123Z,13.90
2017-10-12T19:27:37.912Z,13.90
2017-10-12T19:30:05.457Z,13.90
2017-10-12T19:32:32.976Z,13.90
2017-10-12T19:35:01.270Z,13.90
2017-10-12T19:37:28.795Z,13.90
2017-10-12T19:39:56.332Z,13.90
2017-10-12T19:42:23.959Z,13.80
2017-10-12T19:44:51.494Z,13.80
2017-10-12T19:47:19.039Z,13.80
2017-10-12T19:49:46.599Z,13.80
2017-10-12T19:52:14.146Z,13.80
2017-10-12T19:54:42.571Z,13.80
2017-10-12T19:57:10.122Z,13.80
2017-10-12T19:59:37.647Z,13.80
2017-10-12T20:02:09.737Z,13.80
2017-10-12T20:04:41.659Z,13.70
2017-10-12T20:07:09.193Z,13.70
2017-10-12T20:09:36.858Z,13.70
2017-10-12T20:12:04.390Z,13.70
2017-10-12T20:14:32.736Z,13.70
2017-10-12T20:17:00.292Z,13.70
2017-10-12T20:19:27.830Z,13.70
2017-10-12T20:21:55.366Z,13.70
2017-10-12T20:26:51.190Z,13.70
2017-10-12T20:29:33.672Z,13.70
2017-10-12T20:31:46.210Z,13.70
2017-10-12T20:34:13.732Z,13.70
2017-10-12T20:36:41.227Z,13.60
2017-10-12T20:39:09.505Z,13.60
2017-10-12T20:41:37.779Z,13.60
2017-10-12T20:44:06.041Z,13.50
2017-10-12T20:46:34.308Z,13.50
2017-10-12T20:49:01.826Z,13.50
2017-10-12T20:51:29.327Z,13.50
2017-10-12T20:53:56.818Z,13.50
2017-10-12T20:56:24.322Z,13.50
2017-10-12T20:58:51.814Z,13.50
2017-10-12T21:01:20.095Z,13.40
2017-10-12T21:03:48.350Z,13.40
2017-10-12T21:06:15.843Z,13.40
2017-10-12T21:08:44.116Z,13.40
2017-10-12T21:11:12.379Z,13.30
2017-10-12T21:13:40.658Z,13.30
2017-10-12T21:16:08.934Z,13.30
2017-10-12T21:18:37.195Z,13.30
2017-10-12T21:21:04.701Z,13.30
2017-10-12T21:23:32.197Z,13.40
2017-10-12T21:25:59.703Z,13.30
2017-10-12T21:28:27.990Z,13.20
2017-10-12T21:30:55.499Z,13.20
2017-10-12T21:33:22.998Z,13.20
2017-10-12T21:35:51.298Z,13.10
2017-10-12T21:38:18.803Z,13.10
2017-10-12T21:40:46.313Z,13.10
2017-10-12T21:43:13.840Z,13.10
2017-10-12T21:45:42.097Z,13.20
2017-10-12T21:48:09.597Z,13.10
2017-10-12T21:50:37.879Z,13.10
2017-10-12T21:53:05.370Z,13.10
2017-10-12T21:55:32.867Z,13.10
2017-10-12T21:58:00.388Z,13.10
2017-10-12T22:00:27.884Z,13.00
2017-10-12T22:02:56.169Z,13.00
2017-10-12T22:05:24.482Z,13.00
2017-10-12T22:07:51.978Z,13.00
2017-10-12T22:10:19.496Z,12.90
2017-10-12T22:12:46.981Z,12.90
2017-10-12T22:15:14.477Z,12.90
2017-10-12T22:17:42.762Z,12.80
2017-10-12T22:20:11.015Z,12.90
2017-10-12T22:22:38.501Z,12.80
2017-10-12T22:25:06.778Z,12.90
2017-10-12T22:27:35.035Z,12.90
2017-10-12T22:30:02.527Z,12.90
2017-10-12T22:32:30.043Z,12.90
2017-10-12T22:34:57.543Z,12.80
2017-10-12T22:37:25.061Z,12.80
2017-10-12T22:39:52.558Z,12.80
2017-10-12T22:42:20.062Z,12.80
2017-10-12T22:44:48.334Z,12.80
2017-10-12T22:47:15.849Z,12.80
2017-10-12T22:49:43.378Z,12.70
2017-10-12T22:52:10.872Z,12.60
2017-10-12T22:54:38.392Z,12.60
2017-10-12T22:57:05.918Z,12.60
2017-10-12T22:59:33.423Z,12.50
2017-10-12T23:02:01.690Z,12.40
2017-10-12T23:04:29.222Z,12.30
2017-10-12T23:06:56.720Z,12.30
2017-10-12T23:09:24.224Z,12.30
2017-10-12T23:11:51.742Z,12.20
2017-10-12T23:14:20.010Z,12.10
2017-10-12T23:16:47.500Z,12.10
2017-10-12T23:19:15.796Z,12.20
2017-10-12T23:21:43.302Z,12.10
2017-10-12T23:24:10.809Z,12.10
2017-10-12T23:26:38.334Z,12.00
2017-10-12T23:29:06.598Z,11.80
2017-10-12T23:31:34.875Z,11.80
2017-10-12T23:34:02.388Z,11.80
2017-10-12T23:36:29.885Z,11.90
2017-10-12T23:38:57.382Z,11.90
2017-10-12T23:41:24.898Z,11.90
2017-10-12T23:43:52.387Z,12.00
2017-10-12T23:46:20.649Z,11.80
2017-10-12T23:48:48.169Z,11.80
2017-10-12T23:51:15.690Z,11.80
2017-10-12T23:53:43.198Z,11.80
2017-10-12T23:56:10.698Z,11.80
2017-10-12T23:58:38.969Z,11.60
